Time;durP1;ratioP1;P1;durP2;ratioP2;P2;SDS_P1;SDS_P2;PMS_P1;PMS_P2;Temp;Humidity;BMP_temperature;BMP_pressure;BME280_temperature;BME280_humidity;BME280_pressure;Samples;Min_cycle;Max_cycle;Signal;HPM_P1;HPM_P2
2022/07/04 00:02:24;;;;;;;;;0.00;0.00;;;;;-146.67;28.53;74248.38;5061549;28;61899;-84
2022/07/04 00:04:50;;;;;;;;;0.00;0.00;;;;;-146.67;28.01;74240.38;5062578;28;61932;-84
2022/07/04 00:07:15;;;;;;;;;0.00;0.00;;;;;-146.67;28.66;74238.38;5062432;28;61852;-84
2022/07/04 00:09:41;;;;;;;;;0.00;0.00;;;;;-146.67;28.25;74236.38;5060426;28;63825;-83
2022/07/04 00:12:07;;;;;;;;;0.00;0.00;;;;;-146.67;28.38;74248.38;5062312;28;61840;-84
2022/07/04 00:14:32;;;;;;;;;0.00;0.00;;;;;-146.67;28.50;74248.38;5061836;28;61824;-84
2022/07/04 00:16:58;;;;;;;;;0.00;0.00;;;;;-146.67;28.59;74248.38;5062179;28;61939;-84
2022/07/04 00:19:23;;;;;;;;;0.00;0.00;;;;;-146.67;28.64;74250.38;5061674;28;62612;-83
2022/07/04 00:21:49;;;;;;;;;0.00;0.00;;;;;-146.67;28.61;74254.34;5060564;28;61783;-84
2022/07/04 00:24:14;;;;;;;;;0.00;0.00;;;;;-146.67;28.26;74254.34;5061821;28;61951;-84
2022/07/04 00:26:40;;;;;;;;;0.00;0.00;;;;;-146.67;28.38;74256.34;5062269;28;62168;-83
2022/07/04 00:29:05;;;;;;;;;0.00;0.00;;;;;-146.67;28.78;74260.34;5061038;28;61744;-84
2022/07/04 00:31:31;;;;;;;;;0.00;0.00;;;;;-146.67;28.47;74258.34;5060274;28;61958;-84
2022/07/04 00:33:56;;;;;;;;;0.00;0.00;;;;;-146.67;28.48;74270.31;5061773;28;62322;-84
2022/07/04 00:36:22;;;;;;;;;0.00;0.00;;;;;-146.67;28.47;74266.34;5046602;28;61840;-84
2022/07/04 00:38:47;;;;;;;;;0.00;0.00;;;;;-146.67;28.84;74272.31;5039579;28;64867;-84
2022/07/04 00:41:13;;;;;;;;;0.00;0.00;;;;;-146.67;28.65;74276.31;5041974;28;61784;-84
2022/07/04 00:43:38;;;;;;;;;0.00;0.00;;;;;-146.67;28.62;74274.31;5041195;28;62166;-84
2022/07/04 00:46:07;;;;;;;;;0.00;0.00;;;;;-146.67;28.50;74256.34;5041934;28;62213;-84
2022/07/04 00:48:33;;;;;;;;;0.00;0.00;;;;;-146.67;28.76;74250.38;5039423;28;64164;-84
2022/07/04 00:50:59;;;;;;;;;0.00;0.00;;;;;-146.67;28.33;74258.34;5065990;28;61826;-84
2022/07/04 00:53:24;;;;;;;;;0.00;0.00;;;;;-146.67;28.31;74270.31;5085316;27;62529;-83
2022/07/04 00:55:51;;;;;;;;;0.00;0.00;;;;;-146.67;28.35;74264.34;5085455;27;61855;-84
2022/07/04 00:58:20;;;;;;;;;0.00;0.00;;;;;-146.67;28.61;74258.34;5084570;28;62158;-83
2022/07/04 01:00:46;;;;;;;;;0.00;0.00;;;;;-146.67;28.69;74254.34;5085542;27;61883;-84
2022/07/04 01:03:11;;;;;;;;;0.00;0.00;;;;;-146.67;28.52;74254.34;5083893;28;62033;-84
2022/07/04 01:05:38;;;;;;;;;0.00;0.00;;;;;-146.67;28.55;74256.34;5085488;28;62131;-83
2022/07/04 01:08:04;;;;;;;;;0.00;0.00;;;;;-146.67;28.46;74256.34;5083542;28;63913;-83
2022/07/04 01:10:30;;;;;;;;;0.00;0.00;;;;;-146.67;28.13;74260.34;5085478;28;62014;-83
2022/07/04 01:12:56;;;;;;;;;0.00;0.00;;;;;-146.67;28.34;74268.31;5083322;28;61894;-84
2022/07/04 01:15:22;;;;;;;;;0.00;0.00;;;;;-146.67;28.40;74268.31;5085509;28;61932;-84
2022/07/04 01:17:48;;;;;;;;;0.00;0.00;;;;;-146.67;28.32;74282.31;5084325;28;62011;-84
2022/07/04 01:20:14;;;;;;;;;0.00;0.00;;;;;-146.67;28.46;74292.28;5085458;27;62130;-84
2022/07/04 01:22:41;;;;;;;;;0.00;0.00;;;;;-146.67;28.81;74300.28;5083931;27;61731;-84
2022/07/04 01:25:08;;;;;;;;;0.00;0.00;;;;;-146.67;29.12;74296.28;5085279;27;61887;-83
2022/07/04 01:27:33;;;;;;;;;0.00;0.00;;;;;-146.67;28.94;74306.25;5084184;27;61716;-83
2022/07/04 01:29:59;;;;;;;;;0.00;0.00;;;;;-146.67;28.86;74318.25;5085259;27;61719;-83
2022/07/04 01:32:25;;;;;;;;;0.00;0.00;;;;;-146.67;28.90;74318.25;5084868;27;62012;-83
2022/07/04 01:34:50;;;;;;;;;0.00;0.00;;;;;-146.67;29.00;74318.25;5065473;27;62081;-83
2022/07/04 01:37:16;;;;;;;;;0.00;0.00;;;;;-146.67;29.05;74326.22;5063993;28;62742;-84
2022/07/04 01:39:41;;;;;;;;;0.00;0.00;;;;;-146.67;29.32;74332.22;5064561;28;61798;-84
2022/07/04 01:42:07;;;;;;;;;0.00;0.00;;;;;-146.67;29.56;74342.19;5062793;28;62055;-83
2022/07/04 01:44:34;;;;;;;;;0.00;0.00;;;;;-146.67;29.43;74350.19;5064886;28;62192;-83
2022/07/04 01:47:00;;;;;;;;;0.00;0.00;;;;;-146.67;29.32;74336.19;5063680;28;62925;-83
2022/07/04 01:49:25;;;;;;;;;0.00;0.00;;;;;-146.67;28.95;74332.22;5063017;28;61862;-83
2022/07/04 01:51:51;;;;;;;;;0.00;0.00;;;;;-146.67;28.98;74342.19;5062691;28;61876;-83
2022/07/04 01:54:17;;;;;;;;;0.00;0.00;;;;;-146.67;29.00;74340.19;5063908;28;61739;-83
2022/07/04 01:56:43;;;;;;;;;0.00;0.00;;;;;-146.67;28.96;74334.22;5063613;28;62612;-84
2022/07/04 01:59:09;;;;;;;;;0.00;0.00;;;;;-146.67;29.13;74336.19;5064293;28;61689;-83
2022/07/04 02:01:37;;;;;;;;;0.00;0.00;;;;;-146.67;28.94;74336.19;5063931;28;62090;-83
2022/07/04 02:04:04;;;;;;;;;0.00;0.00;;;;;-146.67;29.25;74340.19;5064222;28;62007;-83
2022/07/04 02:06:30;;;;;;;;;0.00;0.00;;;;;-146.67;29.46;74346.19;5063576;28;61955;-83
2022/07/04 02:14:25;;;;;;;;;0.00;0.00;;;;;-146.67;29.46;74364.16;5064359;28;61941;-83
2022/07/04 02:16:50;;;;;;;;;0.00;0.00;;;;;-146.67;29.61;74358.16;5062049;28;63761;-83
2022/07/04 02:19:16;;;;;;;;;0.00;0.00;;;;;-146.67;29.43;74366.16;5063804;28;62095;-83
2022/07/04 02:21:42;;;;;;;;;0.00;0.00;;;;;-146.67;29.02;74372.13;5063877;28;61842;-83
2022/07/04 02:24:07;;;;;;;;;0.00;0.00;;;;;-146.67;29.26;74380.13;5063108;28;62416;-83
2022/07/04 02:26:33;;;;;;;;;0.00;0.00;;;;;-146.67;29.32;74380.13;5062138;28;63757;-83
2022/07/04 02:28:58;;;;;;;;;0.00;0.00;;;;;-146.67;29.46;74378.13;5063959;28;61779;-83
2022/07/04 02:31:24;;;;;;;;;0.00;0.00;;;;;-146.67;29.66;74386.13;5063950;28;61780;-83
2022/07/04 02:33:50;;;;;;;;;0.00;0.00;;;;;-146.67;29.76;74392.09;5061823;28;61941;-83
2022/07/04 02:36:15;;;;;;;;;0.00;0.00;;;;;-146.67;30.00;74398.09;5061957;28;64761;-83
2022/07/04 02:38:40;;;;;;;;;0.00;0.00;;;;;-146.67;29.49;74396.09;5063397;28;61760;-83
2022/07/04 02:41:06;;;;;;;;;0.00;0.00;;;;;-146.67;29.69;74406.06;5063421;28;61817;-82
2022/07/04 02:43:31;;;;;;;;;0.00;0.00;;;;;-146.67;29.75;74410.06;5063587;28;62016;-83
2022/07/04 02:45:57;;;;;;;;;0.00;0.00;;;;;-146.67;30.18;74426.03;5061679;28;63555;-83
2022/07/04 02:48:22;;;;;;;;;0.00;0.00;;;;;-146.67;29.80;74432.03;5063040;28;62303;-83
2022/07/04 02:50:48;;;;;;;;;0.00;0.00;;;;;-146.67;30.02;74436.03;5062190;28;62363;-83
2022/07/04 02:53:13;;;;;;;;;0.00;0.00;;;;;-146.67;29.78;74440.00;5062544;28;62123;-83
2022/07/04 02:55:38;;;;;;;;;0.00;0.00;;;;;-146.67;30.00;74442.00;5062805;28;62102;-83
2022/07/04 02:58:04;;;;;;;;;0.00;0.00;;;;;-146.67;30.12;74438.03;5063288;28;61891;-83
2022/07/04 03:00:29;;;;;;;;;0.00;0.00;;;;;-146.67;30.12;74436.03;5062222;28;62417;-83
2022/07/04 03:02:55;;;;;;;;;0.00;0.00;;;;;-146.67;30.21;74440.00;5063113;28;61916;-83
2022/07/04 03:05:20;;;;;;;;;0.00;0.00;;;;;-146.67;30.32;74440.00;5061431;28;63546;-83
2022/07/04 03:07:46;;;;;;;;;0.00;0.00;;;;;-146.67;29.99;74430.03;5062792;28;61876;-83
2022/07/04 03:10:12;;;;;;;;;0.00;0.00;;;;;-146.67;30.04;74418.06;5063293;28;61853;-83
2022/07/04 03:12:37;;;;;;;;;0.00;0.00;;;;;-146.67;29.92;74424.03;5062514;28;61781;-83
2022/07/04 03:15:03;;;;;;;;;0.00;0.00;;;;;-146.67;30.19;74424.03;5062557;28;62006;-83
2022/07/04 03:17:30;;;;;;;;;0.00;0.00;;;;;-146.67;30.25;74428.03;5063010;28;61880;-83
2022/07/04 03:19:58;;;;;;;;;0.00;0.00;;;;;-146.67;30.00;74418.06;5061665;28;62046;-83
2022/07/04 03:22:24;;;;;;;;;0.00;0.00;;;;;-146.67;30.00;74424.03;5061333;28;62318;-83
2022/07/04 03:24:49;;;;;;;;;0.00;0.00;;;;;-146.67;30.12;74422.03;5060506;28;63572;-83
2022/07/04 03:27:15;;;;;;;;;0.00;0.00;;;;;-146.67;30.12;74428.03;5062705;28;62003;-83
2022/07/04 03:29:40;;;;;;;;;0.00;0.00;;;;;-146.67;30.09;74418.06;5063088;28;61718;-83
2022/07/04 03:32:06;;;;;;;;;0.00;0.00;;;;;-146.67;29.92;74414.06;5061250;28;61858;-83
2022/07/04 03:34:32;;;;;;;;;0.00;0.00;;;;;-146.67;30.09;74414.06;5050612;28;63200;-83
2022/07/04 03:36:57;;;;;;;;;0.00;0.00;;;;;-146.67;29.93;74408.06;5042431;28;61860;-83
2022/07/04 03:39:23;;;;;;;;;0.00;0.00;;;;;-146.67;30.03;74412.06;5041183;28;62000;-83
2022/07/04 03:41:48;;;;;;;;;0.00;0.00;;;;;-146.67;30.07;74416.06;5041544;28;61742;-83
2022/07/04 03:44:14;;;;;;;;;0.00;0.00;;;;;-146.67;30.36;74422.03;5040245;28;63937;-83
2022/07/04 03:46:39;;;;;;;;;0.00;0.00;;;;;-146.67;30.33;74424.03;5042718;28;61661;-83
2022/07/04 03:49:05;;;;;;;;;0.00;0.00;;;;;-146.67;30.34;74432.03;5042248;28;61896;-83
2022/07/04 03:51:31;;;;;;;;;0.00;0.00;;;;;-146.67;30.48;74446.00;5042516;28;62008;-83
2022/07/04 03:53:57;;;;;;;;;0.00;0.00;;;;;-146.67;30.48;74459.97;5041417;28;61749;-83
2022/07/04 03:56:22;;;;;;;;;0.00;0.00;;;;;-146.67;30.52;74469.97;5040933;28;61876;-83
2022/07/04 03:58:48;;;;;;;;;0.00;0.00;;;;;-146.67;30.36;74483.94;5042520;28;61846;-83
2022/07/04 04:01:18;;;;;;;;;0.00;0.00;;;;;-146.67;30.65;74481.94;5041185;28;61775;-84
2022/07/04 04:06:29;;;;;;;;;0.00;0.00;;;;;-146.67;30.80;74495.91;5041755;28;61991;-83
2022/07/04 04:08:55;;;;;;;;;0.00;0.00;;;;;-146.67;30.73;74507.91;5040727;28;61973;-83
2022/07/04 04:11:20;;;;;;;;;0.00;0.00;;;;;-146.67;30.73;74511.88;5042350;28;61965;-83
2022/07/04 04:13:46;;;;;;;;;0.00;0.00;;;;;-146.67;30.51;74511.88;5040173;28;65001;-84
2022/07/04 04:16:11;;;;;;;;;0.00;0.00;;;;;-146.67;30.66;74519.88;5042293;28;61754;-84
2022/07/04 04:18:37;;;;;;;;;0.00;0.00;;;;;-146.67;30.77;74521.88;5041690;28;61808;-83
2022/07/04 04:21:03;;;;;;;;;0.00;0.00;;;;;-146.67;30.70;74513.88;5042126;28;61974;-84
2022/07/04 04:23:28;;;;;;;;;0.00;0.00;;;;;-146.67;30.85;74511.88;5039459;28;63879;-83
2022/07/04 04:25:54;;;;;;;;;0.00;0.00;;;;;-146.67;30.58;74507.91;5043509;28;61877;-83
2022/07/04 04:28:20;;;;;;;;;0.00;0.00;;;;;-146.67;30.91;74517.88;5043739;28;61928;-84
2022/07/04 04:30:45;;;;;;;;;0.00;0.00;;;;;-146.67;30.83;74523.88;5045870;28;62043;-83
2022/07/04 04:33:11;;;;;;;;;0.00;0.00;;;;;-146.67;30.67;74523.88;5050091;28;62814;-83
2022/07/04 04:35:36;;;;;;;;;0.00;0.00;;;;;-146.67;30.67;74499.91;5063636;28;61721;-83
2022/07/04 04:38:02;;;;;;;;;0.00;0.00;;;;;-146.67;30.67;74501.91;5064520;28;61775;-83
2022/07/04 04:40:28;;;;;;;;;0.00;0.00;;;;;-146.67;30.46;74491.94;5069566;28;61564;-83
2022/07/04 04:42:53;;;;;;;;;0.00;0.00;;;;;-146.67;30.71;74479.94;5067866;28;63542;-83
2022/07/04 04:45:18;;;;;;;;;0.00;0.00;;;;;-146.67;30.69;74459.97;5065427;28;61960;-83
2022/07/04 04:47:44;;;;;;;;;0.00;0.00;;;;;-146.67;30.41;74454.00;5065295;28;61860;-83
2022/07/04 04:50:11;;;;;;;;;0.00;0.00;;;;;-146.67;30.45;74452.00;5065204;28;62235;-84
2022/07/04 04:52:41;;;;;;;;;0.00;0.00;;;;;-146.67;30.29;74459.97;5062926;28;63755;-83
2022/07/04 04:55:07;;;;;;;;;0.00;0.00;;;;;-146.67;30.57;74457.97;5065521;28;61961;-83
2022/07/04 04:57:33;;;;;;;;;0.00;0.00;;;;;-146.67;30.31;74452.00;5065332;28;61931;-83
2022/07/04 04:59:59;;;;;;;;;0.00;0.00;;;;;-146.67;30.18;74454.00;5062734;28;61765;-84
2022/07/04 05:02:25;;;;;;;;;0.00;0.00;;;;;-146.67;30.30;74459.97;5063867;28;61949;-83
2022/07/04 05:04:50;;;;;;;;;0.00;0.00;;;;;-146.67;30.32;74467.97;5064867;28;61954;-81
2022/07/04 05:07:17;;;;;;;;;0.00;0.00;;;;;-146.67;30.53;74459.97;5079857;28;61793;-81
2022/07/04 05:09:42;;;;;;;;;0.00;0.00;;;;;-146.67;30.13;74465.97;5085830;27;61941;-82
2022/07/04 05:12:13;;;;;;;;;0.00;0.00;;;;;-146.67;29.96;74473.97;5078272;28;62655;-78
2022/07/04 05:14:40;;;;;;;;;0.00;0.00;;;;;-146.67;30.60;74487.94;5064004;28;61745;-77
2022/07/04 05:17:10;;;;;;;;;0.00;0.00;;;;;-146.67;30.50;74485.94;5065328;28;61830;-80
2022/07/04 05:19:35;;;;;;;;;0.00;0.00;;;;;-146.67;30.43;74485.94;5064512;28;62095;-82
2022/07/04 05:22:01;;;;;;;;;0.00;0.00;;;;;-146.67;30.65;74463.97;5068570;28;62778;-82
2022/07/04 05:24:26;;;;;;;;;0.00;0.00;;;;;-146.67;30.47;74456.00;5078207;28;61949;-73
2022/07/04 05:26:52;;;;;;;;;0.00;0.00;;;;;-146.67;30.30;74452.00;5067758;28;62250;-80
2022/07/04 05:29:18;;;;;;;;;0.00;0.00;;;;;-146.67;29.76;74450.00;5071013;27;62502;-78
2022/07/04 05:31:43;;;;;;;;;0.00;0.00;;;;;-146.67;30.60;74446.00;5064598;28;62890;-83
2022/07/04 05:34:08;;;;;;;;;0.00;0.00;;;;;-146.67;30.46;74432.03;5062125;28;61976;-79
2022/07/04 05:36:34;;;;;;;;;0.00;0.00;;;;;-146.67;30.25;74406.06;5064063;28;62165;-80
2022/07/04 05:38:59;;;;;;;;;0.00;0.00;;;;;-146.67;30.06;74364.16;5081208;28;62101;-81
2022/07/04 05:41:25;;;;;;;;;0.00;0.00;;;;;-146.67;29.68;74280.31;5072279;27;63130;-80
2022/07/04 05:43:51;;;;;;;;;0.00;0.00;;;;;-146.67;29.03;74190.47;5074134;28;61836;-80
2022/07/04 05:46:16;;;;;;;;;0.00;0.00;;;;;-146.67;28.27;74094.66;5071223;28;61843;-80
2022/07/04 05:48:41;;;;;;;;;0.00;0.00;;;;;-146.67;27.97;74014.81;5075343;27;61800;-79
2022/07/04 05:51:07;;;;;;;;;0.00;0.00;;;;;-146.67;27.49;73960.91;5070692;28;62129;-79
2022/07/04 05:53:33;;;;;;;;;0.00;0.00;;;;;-146.67;27.41;73950.94;5070228;28;62364;-79
2022/07/04 05:55:59;;;;;;;;;0.00;0.00;;;;;-146.67;27.36;73934.94;5072912;27;62047;-79
2022/07/04 05:58:24;;;;;;;;;0.00;0.00;;;;;-146.67;27.29;73922.97;5073337;28;62039;-79
2022/07/04 06:00:50;;;;;;;;;0.00;0.00;;;;;-146.67;27.24;73942.94;5073273;27;61704;-80
2022/07/04 06:03:15;;;;;;;;;0.00;0.00;;;;;-146.67;27.39;73974.88;5070289;28;61884;-79
2022/07/04 06:05:40;;;;;;;;;0.00;0.00;;;;;-146.67;27.50;73980.88;5074094;28;62698;-79
2022/07/04 06:08:06;;;;;;;;;0.00;0.00;;;;;-146.67;27.56;73994.84;5072889;27;62245;-79
2022/07/04 06:10:31;;;;;;;;;0.00;0.00;;;;;-146.67;27.50;73994.84;5070749;28;64995;-79
2022/07/04 06:12:57;;;;;;;;;0.00;0.00;;;;;-146.67;27.73;74042.75;5072588;28;62333;-80
2022/07/04 06:15:22;;;;;;;;;0.00;0.00;;;;;-146.67;27.95;74064.72;5071174;28;62251;-80
2022/07/04 06:17:48;;;;;;;;;0.00;0.00;;;;;-146.67;28.01;74068.69;5071099;28;61964;-79
2022/07/04 06:20:15;;;;;;;;;0.00;0.00;;;;;-146.67;28.04;74064.72;5080762;27;62558;-79
2022/07/04 06:22:43;;;;;;;;;0.00;0.00;;;;;-146.67;28.18;74060.72;5099321;27;61864;-80
2022/07/04 06:25:16;;;;;;;;;0.00;0.00;;;;;-146.67;28.04;74052.72;5084286;27;61852;-79
2022/07/04 06:27:43;;;;;;;;;0.00;0.00;;;;;-146.67;27.76;73980.88;5084504;27;61807;-79
2022/07/04 06:30:10;;;;;;;;;0.00;0.00;;;;;-146.67;27.00;73835.16;5081617;28;64709;-79
2022/07/04 06:32:51;;;;;;;;;0.00;0.00;;;;;-146.67;26.19;73745.31;5082107;28;63028;-79
2022/07/04 06:38:15;;;;;;;;;0.00;0.00;;;;;-146.67;26.17;73753.31;5043668;28;61731;-79
2022/07/04 06:40:41;;;;;;;;;0.00;0.00;;;;;-146.67;26.62;73831.16;5042882;28;62019;-79
2022/07/04 06:43:07;;;;;;;;;0.00;0.00;;;;;-146.67;26.99;73926.97;5043261;28;62000;-79
2022/07/04 06:45:33;;;;;;;;;0.00;0.00;;;;;-146.67;27.21;73996.84;5042850;28;61839;-79
2022/07/04 06:48:00;;;;;;;;;0.00;0.00;;;;;-146.67;27.79;74034.75;5049982;28;61982;-79
2022/07/04 06:50:25;;;;;;;;;0.00;0.00;;;;;-146.67;28.10;74072.69;5073575;28;62853;-79
2022/07/04 06:52:51;;;;;;;;;0.00;0.00;;;;;-146.67;27.95;74096.66;5069090;28;62031;-79
2022/07/04 06:55:16;;;;;;;;;0.00;0.00;;;;;-146.67;28.01;74100.63;5069865;28;61860;-79
2022/07/04 06:57:41;;;;;;;;;0.00;0.00;;;;;-146.67;28.55;74106.63;5082461;28;61957;-79
2022/07/04 07:00:08;;;;;;;;;0.00;0.00;;;;;-146.67;28.04;74100.63;5082614;28;61838;-79
2022/07/04 07:02:37;;;;;;;;;0.00;0.00;;;;;-146.67;28.04;74124.59;5082936;28;62216;-79
2022/07/04 07:05:04;;;;;;;;;0.00;0.00;;;;;-146.67;28.13;74138.56;5071538;27;62291;-79
2022/07/04 07:07:30;;;;;;;;;0.00;0.00;;;;;-146.67;28.35;74138.56;5072304;28;61808;-79
2022/07/04 07:09:56;;;;;;;;;0.00;0.00;;;;;-146.67;28.51;74128.59;5062193;28;61837;-79
2022/07/04 07:12:22;;;;;;;;;0.00;0.00;;;;;-146.67;28.32;74126.59;5063906;28;62088;-79
2022/07/04 07:14:49;;;;;;;;;0.00;0.00;;;;;-146.67;28.26;74112.63;5075865;27;61846;-79
2022/07/04 07:17:15;;;;;;;;;0.00;0.00;;;;;-146.67;28.34;74104.63;5074002;28;61879;-79
2022/07/04 07:19:42;;;;;;;;;0.00;0.00;;;;;-146.67;27.93;74114.63;5067814;27;62856;-79
2022/07/04 07:22:12;;;;;;;;;0.00;0.00;;;;;-146.67;28.21;74102.63;5070957;28;61904;-80
2022/07/04 07:24:38;;;;;;;;;0.00;0.00;;;;;-146.67;28.36;74104.63;5071369;28;62455;-79
2022/07/04 07:27:04;;;;;;;;;0.00;0.00;;;;;-146.67;28.00;74082.69;5070795;28;62178;-80
2022/07/04 07:29:30;;;;;;;;;0.00;0.00;;;;;-146.67;27.73;74062.72;5069602;28;64163;-80
2022/07/04 07:31:56;;;;;;;;;0.00;0.00;;;;;-146.67;28.01;74046.75;5070759;27;62069;-80
2022/07/04 07:34:22;;;;;;;;;0.00;0.00;;;;;-146.67;27.44;74058.72;5069699;28;62139;-80
2022/07/04 07:36:47;;;;;;;;;0.00;0.00;;;;;-146.67;27.66;74068.69;5065327;28;62284;-80
2022/07/04 07:39:12;;;;;;;;;0.00;0.00;;;;;-146.67;27.41;74086.66;5070909;28;62657;-80
2022/07/04 07:41:38;;;;;;;;;0.00;0.00;;;;;-146.67;27.60;74090.66;5061870;28;61793;-79
2022/07/04 07:44:03;;;;;;;;;0.00;0.00;;;;;-146.67;27.93;74104.63;5073813;28;61799;-80
2022/07/04 07:46:29;;;;;;;;;0.00;0.00;;;;;-146.67;27.62;74122.59;5073245;28;62129;-80
2022/07/04 07:48:55;;;;;;;;;0.00;0.00;;;;;-146.67;27.80;74136.56;5076011;27;63178;-80
2022/07/04 07:51:20;;;;;;;;;0.00;0.00;;;;;-146.67;27.67;74120.59;5073080;28;61924;-80
2022/07/04 07:53:45;;;;;;;;;0.00;0.00;;;;;-146.67;27.86;74110.63;5069108;28;61864;-80
2022/07/04 07:56:11;;;;;;;;;0.00;0.00;;;;;-146.67;27.68;74098.66;5072121;27;61899;-80
2022/07/04 07:58:37;;;;;;;;;0.00;0.00;;;;;-146.67;27.99;74104.63;5063575;28;63081;-80
2022/07/04 08:01:02;;;;;;;;;0.00;0.00;;;;;-146.67;27.92;74100.63;5074136;28;62011;-80
2022/07/04 08:06:13;;;;;;;;;0.00;0.00;;;;;-146.67;27.31;74106.63;5078369;28;62123;-80
2022/07/04 08:08:40;;;;;;;;;0.00;0.00;;;;;-146.67;27.70;74100.63;5075760;28;62233;-80
2022/07/04 08:11:05;;;;;;;;;0.00;0.00;;;;;-146.67;27.54;74094.66;5076319;27;62402;-80
2022/07/04 08:13:31;;;;;;;;;0.00;0.00;;;;;-146.67;27.51;74082.69;5082288;28;62064;-80
2022/07/04 08:15:56;;;;;;;;;0.00;0.00;;;;;-146.67;27.31;74082.69;5081131;28;61924;-81
2022/07/04 08:18:22;;;;;;;;;0.00;0.00;;;;;-146.67;27.16;74096.66;5076567;28;61728;-80
2022/07/04 08:20:49;;;;;;;;;0.00;0.00;;;;;-146.67;27.34;74086.66;5071090;28;62001;-80
2022/07/04 08:23:15;;;;;;;;;0.00;0.00;;;;;-146.67;27.34;74076.69;5060973;28;61876;-80
2022/07/04 08:25:40;;;;;;;;;0.00;0.00;;;;;-146.67;27.29;74060.72;5076237;28;62120;-80
2022/07/04 08:28:06;;;;;;;;;0.00;0.00;;;;;-146.67;27.41;74058.72;5071292;28;64262;-80
2022/07/04 08:30:32;;;;;;;;;0.00;0.00;;;;;-146.67;27.09;74052.72;5072605;28;62078;-80
2022/07/04 08:32:57;;;;;;;;;0.00;0.00;;;;;-146.67;27.08;74052.72;5075204;27;61892;-80
2022/07/04 08:35:23;;;;;;;;;0.00;0.00;;;;;-146.67;26.85;74060.72;5066229;27;62057;-80
2022/07/04 08:37:52;;;;;;;;;0.00;0.00;;;;;-146.67;26.54;74072.69;5072628;28;61876;-80
2022/07/04 08:40:22;;;;;;;;;0.00;0.00;;;;;-146.67;26.62;74092.66;5066669;28;61838;-81
2022/07/04 08:42:50;;;;;;;;;0.00;0.00;;;;;-146.67;26.59;74106.63;5062006;28;61928;-80
2022/07/04 08:45:17;;;;;;;;;0.00;0.00;;;;;-146.67;26.98;74092.66;5058912;28;61926;-80
2022/07/04 08:47:46;;;;;;;;;0.00;0.00;;;;;-146.67;26.91;74092.66;5056396;28;62691;-80
2022/07/04 08:50:16;;;;;;;;;0.00;0.00;;;;;-146.67;26.84;74072.69;5059607;28;61928;-80
2022/07/04 08:52:54;;;;;;;;;0.00;0.00;;;;;-146.67;26.61;74068.69;5060388;28;61762;-80
2022/07/04 09:00:50;;;;;;;;;1.00;1.00;;;;;-146.67;26.59;74068.69;5061557;28;62145;-80
2022/07/04 09:03:18;;;;;;;;;0.00;0.00;;;;;-146.67;26.63;74062.72;5068462;27;62194;-79
2022/07/04 09:05:44;;;;;;;;;0.00;0.00;;;;;-146.67;26.70;74058.72;5060289;27;62080;-80
2022/07/04 09:08:09;;;;;;;;;0.00;0.00;;;;;-146.67;26.68;74054.72;5060413;28;63609;-80
2022/07/04 09:10:35;;;;;;;;;0.00;0.00;;;;;-146.67;26.42;74052.72;5074340;28;61881;-79
2022/07/04 09:13:03;;;;;;;;;0.00;0.00;;;;;-146.67;26.42;74030.78;5067685;27;62067;-79
2022/07/04 09:15:29;;;;;;;;;0.00;0.00;;;;;-146.67;26.28;74016.78;5073654;28;62165;-80
2022/07/04 09:17:55;;;;;;;;;0.00;0.00;;;;;-146.67;26.37;74018.78;5078727;28;64883;-79
2022/07/04 09:20:22;;;;;;;;;0.00;0.00;;;;;-146.67;26.67;74030.78;5078520;28;61918;-81
2022/07/04 09:22:50;;;;;;;;;0.00;0.00;;;;;-146.67;26.29;74032.75;5069546;27;61817;-80
2022/07/04 09:25:17;;;;;;;;;0.00;0.00;;;;;-146.67;25.93;74018.78;5061748;28;61801;-86
2022/07/04 09:27:47;;;;;;;;;0.00;0.00;;;;;-146.67;25.48;74014.81;5053100;28;61969;-80
2022/07/04 09:30:14;;;;;;;;;0.00;0.00;;;;;-146.67;25.68;73988.84;5048419;28;61972;-79
2022/07/04 09:32:41;;;;;;;;;0.00;0.00;;;;;-146.67;25.66;73986.84;5063738;28;61902;-80
2022/07/04 09:35:09;;;;;;;;;0.00;0.00;;;;;-146.67;25.79;73976.88;5047960;28;61762;-80
2022/07/04 09:37:45;;;;;;;;;0.00;0.00;;;;;-146.67;25.67;73964.91;5046779;28;62417;-80
2022/07/04 09:40:29;;;;;;;;;0.00;0.00;;;;;-146.67;25.72;73958.91;5069301;28;61901;-80
2022/07/04 09:43:00;;;;;;;;;0.00;0.00;;;;;-146.67;25.85;73976.88;5067375;28;61871;-80
2022/07/04 09:45:28;;;;;;;;;0.00;0.00;;;;;-146.67;25.88;73946.94;5071800;28;62218;-78
2022/07/04 09:47:58;;;;;;;;;0.00;0.00;;;;;-146.67;25.71;73940.94;5069286;28;65161;-80
2022/07/04 09:50:25;;;;;;;;;0.00;0.00;;;;;-146.67;25.71;73932.97;5065476;28;61869;-80
2022/07/04 09:53:00;;;;;;;;;0.00;0.00;;;;;-146.67;25.74;73946.94;5060542;28;62039;-81
2022/07/04 09:55:39;;;;;;;;;0.00;0.00;;;;;-146.67;25.72;73954.91;5062538;28;61833;-81
2022/07/04 09:58:07;;;;;;;;;0.00;0.00;;;;;-146.67;25.54;73974.88;5048696;28;62073;-81
2022/07/04 10:00:41;;;;;;;;;0.00;0.00;;;;;-146.67;25.73;73970.88;5062102;28;61868;-81
2022/07/04 10:03:20;;;;;;;;;0.00;0.00;;;;;-146.67;25.82;73954.91;5060826;28;61848;-81
2022/07/04 10:06:00;;;;;;;;;0.00;0.00;;;;;-146.67;25.43;73938.94;5047643;28;62105;-81
2022/07/04 10:08:26;;;;;;;;;0.00;0.00;;;;;-146.67;25.59;73913.00;5061052;28;62837;-80
2022/07/04 10:10:57;;;;;;;;;0.00;0.00;;;;;-146.67;25.64;73901.03;5062498;28;61831;-80
2022/07/04 10:13:23;;;;;;;;;0.00;0.00;;;;;-146.67;25.34;73879.06;5062247;28;61890;-81
2022/07/04 10:15:49;;;;;;;;;0.00;0.00;;;;;-146.67;25.22;73869.09;5063393;28;61808;-81
2022/07/04 10:18:18;;;;;;;;;0.00;0.00;;;;;-146.67;25.63;73863.09;5060827;27;62651;-81
2022/07/04 10:20:44;;;;;;;;;0.00;0.00;;;;;-146.67;25.45;73843.13;5060518;28;62044;-80
2022/07/04 10:23:10;;;;;;;;;0.00;0.00;;;;;-146.67;25.28;73857.09;5048649;28;62071;-81
2022/07/04 10:25:37;;;;;;;;;0.00;0.00;;;;;-146.67;25.08;73865.09;5070310;27;62174;-81
2022/07/04 10:28:03;;;;;;;;;0.00;0.00;;;;;-146.67;25.31;73881.06;5047798;28;63697;-81
2022/07/04 10:30:31;;;;;;;;;0.00;0.00;;;;;-146.67;25.04;73869.09;5062796;28;61995;-82
2022/07/04 10:33:03;;;;;;;;;0.00;0.00;;;;;-146.67;24.62;73861.09;5060978;28;61997;-78
2022/07/04 10:35:53;;;;;;;;;0.00;0.00;;;;;-146.67;24.94;73849.13;5048188;28;62330;-80
2022/07/04 10:38:21;;;;;;;;;0.00;0.00;;;;;-146.67;25.15;73825.16;5052349;28;63774;-80
2022/07/04 10:40:53;;;;;;;;;0.00;0.00;;;;;-146.67;24.96;73817.19;5061877;28;61967;-81
2022/07/04 10:46:06;;;;;;;;;0.00;0.00;;;;;-146.67;24.72;73779.25;5067221;28;61540;-78
2022/07/04 10:48:32;;;;;;;;;0.00;0.00;;;;;-146.67;24.67;73769.28;5061248;28;62061;-83
2022/07/04 10:51:03;;;;;;;;;0.00;0.00;;;;;-146.67;24.76;73751.31;5062243;28;62121;-76
2022/07/04 10:53:30;;;;;;;;;0.00;0.00;;;;;-146.67;24.45;73745.31;5061796;28;61927;-78
2022/07/04 10:56:15;;;;;;;;;0.00;0.00;;;;;-146.67;24.29;73741.34;5062260;28;62106;-76
2022/07/04 10:58:42;;;;;;;;;0.00;0.00;;;;;-146.67;24.25;73747.31;5062569;28;61922;-79
2022/07/04 11:01:16;;;;;;;;;0.00;0.00;;;;;-146.67;24.29;73719.38;5063355;28;61943;-80
2022/07/04 11:03:51;;;;;;;;;0.00;0.00;;;;;-146.67;24.47;73701.41;5062725;28;62058;-78
2022/07/04 11:06:54;;;;;;;;;0.00;0.00;;;;;-146.67;24.22;73683.44;5063097;28;61914;-78
2022/07/04 11:09:24;;;;;;;;;0.00;0.00;;;;;-146.67;24.58;73681.44;5062666;28;62654;-78
2022/07/04 11:12:00;;;;;;;;;0.00;0.00;;;;;-146.67;24.07;73667.47;5061247;28;61982;-77
2022/07/04 11:14:42;;;;;;;;;0.00;0.00;;;;;-146.67;24.19;73677.47;5058786;28;61903;-81
2022/07/04 11:17:19;;;;;;;;;0.00;0.00;;;;;-146.67;24.19;73681.44;5061864;28;61884;-81
2022/07/04 11:19:44;;;;;;;;;0.00;0.00;;;;;-146.67;24.57;73679.44;5060733;28;62778;-82
2022/07/04 11:22:10;;;;;;;;;0.00;0.00;;;;;-146.67;24.09;73651.50;5059899;28;62044;-81
2022/07/04 11:24:38;;;;;;;;;0.00;0.00;;;;;-146.67;24.37;73657.50;5060923;28;62054;-82
2022/07/04 11:27:06;;;;;;;;;0.00;0.00;;;;;-146.67;24.32;73633.53;5069983;28;62067;-82
2022/07/04 11:29:34;;;;;;;;;0.00;0.00;;;;;-146.67;23.79;73613.59;5056064;28;63045;-82
2022/07/04 11:31:59;;;;;;;;;0.00;0.00;;;;;-146.67;24.08;73585.63;5060097;28;61859;-81
2022/07/04 11:34:31;;;;;;;;;0.00;0.00;;;;;-146.67;23.68;73573.66;5067189;28;61991;-85
2022/07/04 11:36:58;;;;;;;;;0.00;0.00;;;;;-146.67;23.91;73541.72;5061178;28;62036;-82
2022/07/04 11:39:23;;;;;;;;;0.00;0.00;;;;;-146.67;23.98;73531.75;5058846;28;62540;-83